Time;durP1;ratioP1;P1;durP2;ratioP2;P2;SDS_P1;SDS_P2;PMS_P1;PMS_P2;Temp;Humidity;BMP_temperature;BMP_pressure;BME280_temperature;BME280_humidity;BME280_pressure;Samples;Min_cycle;Max_cycle;Signal;HPM_P1;HPM_P2
2021/11/23 00:01:52;;;;;;;28.65;3.17;;;6.70;99.90;;;;;;5073543;28;20073;-67
2021/11/23 00:04:18;;;;;;;28.52;3.53;;;6.70;99.90;;;;;;5073504;28;20506;-67
2021/11/23 00:06:43;;;;;;;24.90;3.10;;;6.80;99.90;;;;;;5073532;28;20060;-67
2021/11/23 00:09:09;;;;;;;33.85;3.88;;;6.80;99.90;;;;;;5055548;28;20055;-67
2021/11/23 00:11:34;;;;;;;32.85;4.07;;;6.70;99.90;;;;;;5073460;28;20024;-67
2021/11/23 00:14:00;;;;;;;31.30;4.75;;;6.70;99.90;;;;;;5072818;28;20051;-67
2021/11/23 00:16:26;;;;;;;41.00;6.97;;;6.60;99.90;;;;;;5073425;28;20023;-67
2021/11/23 00:18:51;;;;;;;35.55;5.40;;;6.60;99.90;;;;;;5073274;28;20021;-67
2021/11/23 00:21:17;;;;;;;24.27;3.13;;;6.50;99.90;;;;;;5073380;28;20035;-67
2021/11/23 00:23:43;;;;;;;29.48;3.10;;;6.60;99.90;;;;;;5072903;28;20020;-67
2021/11/23 00:26:09;;;;;;;29.48;4.65;;;6.70;99.90;;;;;;5073302;28;20056;-67
2021/11/23 00:28:34;;;;;;;26.08;3.67;;;6.70;99.90;;;;;;5073332;28;20031;-67
2021/11/23 00:31:00;;;;;;;29.83;4.05;;;6.70;99.90;;;;;;5073793;28;20478;-67
2021/11/23 00:33:32;;;;;;;22.10;3.28;;;6.80;99.90;;;;;;5073215;28;20027;-67
2021/11/23 00:35:58;;;;;;;33.67;4.15;;;6.80;99.90;;;;;;5073216;28;20031;-67
2021/11/23 00:38:24;;;;;;;35.28;3.20;;;6.90;99.90;;;;;;5072836;28;20064;-67
2021/11/23 00:40:49;;;;;;;31.95;3.55;;;6.80;99.90;;;;;;5073173;28;20473;-67
2021/11/23 00:43:15;;;;;;;39.63;4.07;;;6.80;99.90;;;;;;5073109;28;20086;-67
2021/11/23 00:45:42;;;;;;;37.03;3.92;;;6.70;99.90;;;;;;5073213;28;20489;-67
2021/11/23 00:48:09;;;;;;;28.40;3.75;;;6.70;99.90;;;;;;5073078;28;20385;-67
2021/11/23 00:50:35;;;;;;;23.92;3.33;;;6.60;99.90;;;;;;5072619;28;20081;-67
2021/11/23 00:53:03;;;;;;;28.45;4.07;;;6.60;99.90;;;;;;5073031;28;20040;-67
2021/11/23 00:55:30;;;;;;;37.85;3.58;;;6.60;99.90;;;;;;5073038;28;20027;-67
2021/11/23 00:57:56;;;;;;;44.75;3.88;;;6.60;99.90;;;;;;5073144;28;20064;-67
2021/11/23 01:00:22;;;;;;;35.55;3.92;;;6.50;99.90;;;;;;5072439;28;20017;-68
2021/11/23 01:02:47;;;;;;;24.70;3.38;;;6.50;99.90;;;;;;5072888;28;20031;-68
2021/11/23 01:05:13;;;;;;;46.65;4.22;;;6.50;99.90;;;;;;5072947;28;20095;-67
2021/11/23 01:07:39;;;;;;;32.17;3.72;;;6.50;99.90;;;;;;5072953;28;20047;-67
2021/11/23 01:10:06;;;;;;;37.90;4.03;;;6.50;99.90;;;;;;5075811;28;20028;-67
2021/11/23 01:12:32;;;;;;;33.58;3.58;;;6.50;99.90;;;;;;5058853;28;20029;-67
2021/11/23 01:14:58;;;;;;;46.85;4.38;;;6.60;99.90;;;;;;5076884;28;20506;-67
2021/11/23 01:17:24;;;;;;;34.58;3.63;;;6.70;99.90;;;;;;5076992;28;20489;-67
2021/11/23 01:19:50;;;;;;;38.65;5.55;;;6.70;99.90;;;;;;5076715;28;20060;-67
2021/11/23 01:22:15;;;;;;;34.03;3.83;;;6.70;99.90;;;;;;5076119;28;20063;-67
2021/11/23 01:24:41;;;;;;;36.35;4.18;;;6.60;99.90;;;;;;5076673;28;20101;-67
2021/11/23 01:27:07;;;;;;;35.20;4.63;;;6.50;99.90;;;;;;5076521;28;20479;-67
2021/11/23 01:29:34;;;;;;;26.70;3.40;;;6.60;99.90;;;;;;5076216;28;20029;-67
2021/11/23 01:31:59;;;;;;;33.20;2.85;;;6.60;99.90;;;;;;5076505;28;20050;-67
2021/11/23 01:34:25;;;;;;;53.70;4.55;;;6.70;99.90;;;;;;5076368;28;20032;-67
2021/11/23 01:36:50;;;;;;;22.85;3.92;;;6.80;99.90;;;;;;5076548;28;20028;-67
2021/11/23 01:39:16;;;;;;;30.25;4.78;;;6.90;99.90;;;;;;5076949;28;20051;-67
2021/11/23 01:41:42;;;;;;;38.10;4.47;;;7.00;99.90;;;;;;5076546;28;20387;-67
2021/11/23 01:44:09;;;;;;;34.97;3.55;;;7.10;99.90;;;;;;5075716;28;20028;-67
2021/11/23 01:46:34;;;;;;;38.28;4.15;;;7.00;99.90;;;;;;5076229;28;20387;-67
2021/11/23 01:49:00;;;;;;;32.63;3.70;;;6.90;99.90;;;;;;5076189;28;20028;-67
2021/11/23 01:51:26;;;;;;;27.40;3.85;;;6.80;99.90;;;;;;5076503;28;20043;-67
2021/11/23 01:53:52;;;;;;;33.47;2.70;;;6.80;99.90;;;;;;5057464;28;20036;-67
2021/11/23 01:56:18;;;;;;;41.10;3.90;;;6.70;99.90;;;;;;5076103;28;20024;-67
2021/11/23 01:58:43;;;;;;;30.70;3.50;;;6.70;99.90;;;;;;5075967;28;20395;-67
2021/11/23 02:01:09;;;;;;;36.25;3.22;;;6.70;99.90;;;;;;5075470;28;20475;-67
2021/11/23 02:03:37;;;;;;;12.88;2.75;;;6.70;99.90;;;;;;5075906;28;20437;-67
2021/11/23 02:06:06;;;;;;;34.40;4.45;;;6.70;99.90;;;;;;5075914;28;20017;-67
2021/11/23 02:08:31;;;;;;;29.73;4.25;;;6.80;99.90;;;;;;5076149;28;20074;-67
2021/11/23 02:10:57;;;;;;;35.88;4.00;;;6.80;99.90;;;;;;5075316;28;20032;-67
2021/11/23 02:13:25;;;;;;;33.75;3.53;;;6.80;99.90;;;;;;5075729;28;20030;-67
2021/11/23 02:15:51;;;;;;;43.50;3.38;;;6.90;99.90;;;;;;5075756;28;20017;-67
2021/11/23 02:18:19;;;;;;;29.42;3.53;;;7.00;99.90;;;;;;5076194;28;20029;-67
2021/11/23 02:20:46;;;;;;;30.75;4.07;;;6.90;99.90;;;;;;5075159;28;20472;-67
2021/11/23 02:23:13;;;;;;;27.58;4.40;;;6.80;99.90;;;;;;5075024;28;20024;-67
2021/11/23 02:25:38;;;;;;;38.00;3.35;;;6.70;99.90;;;;;;5075557;28;20020;-67
2021/11/23 02:28:07;;;;;;;27.98;3.40;;;6.70;99.90;;;;;;5075533;28;20044;-67
2021/11/23 02:30:44;;;;;;;40.78;3.50;;;6.80;99.90;;;;;;5075564;28;20021;-67
2021/11/23 02:33:10;;;;;;;31.05;6.07;;;6.70;99.90;;;;;;5074990;28;20023;-67
2021/11/23 02:35:36;;;;;;;34.90;3.05;;;6.70;99.90;;;;;;5075419;28;20020;-67
2021/11/23 02:38:01;;;;;;;39.65;3.60;;;6.70;99.90;;;;;;5075243;28;20029;-67
2021/11/23 02:40:27;;;;;;;30.83;2.75;;;6.70;99.90;;;;;;5075502;28;20028;-67
2021/11/23 02:42:53;;;;;;;31.23;4.57;;;6.70;99.90;;;;;;5075152;28;20056;-67
2021/11/23 02:45:20;;;;;;;28.33;3.47;;;6.60;99.90;;;;;;5056692;28;20051;-67
2021/11/23 02:47:47;;;;;;;30.73;3.90;;;6.60;99.90;;;;;;5075168;28;20032;-67
2021/11/23 02:50:15;;;;;;;32.50;3.50;;;6.70;99.90;;;;;;5075094;28;20064;-67
2021/11/23 02:52:45;;;;;;;32.92;3.35;;;6.70;99.90;;;;;;5074748;28;20135;-67
2021/11/23 02:55:11;;;;;;;26.65;2.20;;;6.60;99.90;;;;;;5074950;28;20499;-67
2021/11/23 02:57:37;;;;;;;28.20;3.80;;;6.60;99.90;;;;;;5074251;28;20032;-67
2021/11/23 03:00:09;;;;;;;29.83;2.65;;;6.60;99.90;;;;;;5075186;28;20074;-67
2021/11/23 03:02:36;;;;;;;35.78;3.80;;;6.60;99.90;;;;;;5075086;28;20025;-67
2021/11/23 03:05:04;;;;;;;35.78;2.83;;;6.40;99.90;;;;;;5075023;28;20024;-67
2021/11/23 03:07:29;;;;;;;26.13;3.25;;;6.30;99.90;;;;;;5075019;28;20029;-67
2021/11/23 03:09:56;;;;;;;29.10;3.58;;;6.30;99.90;;;;;;5074665;28;20384;-67
2021/11/23 03:12:24;;;;;;;39.92;3.95;;;6.30;99.90;;;;;;5074018;28;20028;-67
2021/11/23 03:14:50;;;;;;;16.55;2.45;;;6.20;99.90;;;;;;5074582;28;20078;-67
2021/11/23 03:17:17;;;;;;;26.67;3.38;;;6.20;99.90;;;;;;5074667;28;20060;-67
2021/11/23 03:19:44;;;;;;;28.65;3.33;;;6.20;99.90;;;;;;5074488;28;20027;-67
2021/11/23 03:22:11;;;;;;;30.35;3.58;;;6.40;99.90;;;;;;5074628;28;20100;-67
2021/11/23 03:24:38;;;;;;;30.38;3.63;;;6.30;99.90;;;;;;5073885;28;20016;-67
2021/11/23 03:27:05;;;;;;;28.98;3.15;;;6.30;99.90;;;;;;5074344;28;20033;-67
2021/11/23 03:29:30;;;;;;;27.95;4.18;;;6.30;99.90;;;;;;5074830;28;20027;-67
2021/11/23 03:31:57;;;;;;;12.18;2.60;;;6.20;99.90;;;;;;5073562;28;20033;-67
2021/11/23 03:34:23;;;;;;;23.20;3.20;;;6.10;99.90;;;;;;5074138;28;20032;-67
2021/11/23 03:36:49;;;;;;;22.15;2.47;;;6.00;99.90;;;;;;5073591;28;20504;-67
2021/11/23 03:39:14;;;;;;;34.63;3.78;;;6.00;99.90;;;;;;5074083;28;20028;-67
2021/11/23 03:41:41;;;;;;;41.13;4.57;;;5.80;99.90;;;;;;5074635;28;20079;-67
2021/11/23 03:44:07;;;;;;;17.42;2.45;;;5.80;99.90;;;;;;5074231;28;20108;-67
2021/11/23 03:46:32;;;;;;;30.50;3.08;;;5.80;99.90;;;;;;5073965;28;20020;-67
2021/11/23 03:48:59;;;;;;;25.98;3.35;;;5.70;99.90;;;;;;5073361;28;20073;-67
2021/11/23 03:51:24;;;;;;;31.15;4.05;;;5.70;99.90;;;;;;5073868;28;20048;-67
2021/11/23 03:53:50;;;;;;;25.23;3.08;;;5.80;99.90;;;;;;5073696;28;20044;-67
2021/11/23 03:56:16;;;;;;;25.05;3.17;;;5.80;99.90;;;;;;5055910;28;20483;-67
2021/11/23 03:58:43;;;;;;;21.92;2.83;;;5.70;99.90;;;;;;5073138;28;20108;-67
2021/11/23 04:01:09;;;;;;;24.10;3.03;;;5.60;99.90;;;;;;5073662;28;20028;-67
2021/11/23 04:03:35;;;;;;;39.63;3.58;;;5.60;99.90;;;;;;5055709;28;20033;-67
2021/11/23 04:06:02;;;;;;;28.42;3.22;;;5.60;99.90;;;;;;5073881;28;20024;-67
2021/11/23 04:08:28;;;;;;;34.35;2.95;;;5.60;99.90;;;;;;5055679;28;20028;-67
2021/11/23 04:10:54;;;;;;;18.75;2.65;;;5.80;99.90;;;;;;5073533;28;20027;-67
2021/11/23 04:13:20;;;;;;;19.45;2.25;;;5.80;99.90;;;;;;5073043;28;20032;-67
2021/11/23 04:15:46;;;;;;;30.25;3.50;;;5.80;99.90;;;;;;5073677;28;20480;-67
2021/11/23 04:18:12;;;;;;;25.48;3.67;;;5.80;99.90;;;;;;5073347;28;20551;-66
2021/11/23 04:20:38;;;;;;;20.35;2.60;;;5.80;99.90;;;;;;5073456;28;20067;-67
2021/11/23 04:23:04;;;;;;;39.40;3.38;;;6.00;99.90;;;;;;5073529;28;20021;-67
2021/11/23 04:25:29;;;;;;;19.75;3.13;;;6.10;99.90;;;;;;5073346;28;20074;-67
2021/11/23 04:27:56;;;;;;;30.42;2.15;;;6.10;99.90;;;;;;5054845;28;20025;-67
2021/11/23 04:30:22;;;;;;;27.92;3.13;;;6.00;99.90;;;;;;5073302;28;20024;-68
2021/11/23 04:32:48;;;;;;;28.42;3.53;;;5.80;99.90;;;;;;5073216;28;20059;-67
2021/11/23 04:35:13;;;;;;;32.45;2.92;;;5.80;99.90;;;;;;5073233;28;20032;-67
2021/11/23 04:37:40;;;;;;;28.45;3.28;;;5.80;99.90;;;;;;5073134;28;20031;-67
2021/11/23 04:40:08;;;;;;;27.83;3.53;;;5.80;99.90;;;;;;5072684;28;20025;-67
2021/11/23 04:42:34;;;;;;;22.80;3.72;;;5.80;99.90;;;;;;5055020;28;20024;-68
2021/11/23 04:44:59;;;;;;;22.75;3.45;;;5.90;99.90;;;;;;5073188;28;20096;-67
2021/11/23 04:47:25;;;;;;;19.60;2.95;;;6.00;99.90;;;;;;5073429;28;20353;-67
2021/11/23 04:49:50;;;;;;;29.40;3.28;;;6.10;99.90;;;;;;5073058;28;20079;-67
2021/11/23 04:52:16;;;;;;;30.02;3.30;;;6.10;99.90;;;;;;5054849;28;20036;-67
2021/11/23 04:54:41;;;;;;;36.58;3.85;;;6.10;99.90;;;;;;5072743;28;20033;-67
2021/11/23 04:57:07;;;;;;;31.80;3.47;;;6.00;99.90;;;;;;5072973;28;20090;-67
2021/11/23 04:59:33;;;;;;;23.85;2.60;;;5.90;99.90;;;;;;5073035;28;20028;-67
2021/11/23 05:01:59;;;;;;;29.65;3.58;;;5.80;99.90;;;;;;5073281;28;20078;-67
2021/11/23 05:04:25;;;;;;;23.50;2.65;;;5.70;99.90;;;;;;5072613;28;20024;-67
2021/11/23 05:06:50;;;;;;;20.10;2.80;;;5.60;99.90;;;;;;5072953;28;20032;-67
2021/11/23 05:09:16;;;;;;;21.83;3.60;;;5.60;99.90;;;;;;5073163;28;20036;-67
2021/11/23 05:11:46;;;;;;;42.03;5.10;;;5.50;99.90;;;;;;5072891;28;20016;-67
2021/11/23 05:14:12;;;;;;;26.17;3.22;;;5.50;99.90;;;;;;5072222;28;20040;-67
2021/11/23 05:16:37;;;;;;;22.90;3.08;;;5.50;99.90;;;;;;5073428;28;20029;-67
2021/11/23 05:19:03;;;;;;;34.45;2.90;;;5.50;99.90;;;;;;5072732;28;20032;-67
2021/11/23 05:21:29;;;;;;;30.75;3.00;;;5.60;99.90;;;;;;5073625;28;20059;-67
2021/11/23 05:23:54;;;;;;;34.42;2.92;;;5.50;99.90;;;;;;5072679;28;20028;-67
2021/11/23 05:26:20;;;;;;;33.03;3.33;;;5.60;99.90;;;;;;5072355;28;20597;-67
2021/11/23 05:28:45;;;;;;;37.20;3.28;;;5.50;99.90;;;;;;5072731;28;20514;-67
2021/11/23 05:31:11;;;;;;;14.80;2.53;;;5.60;99.90;;;;;;5072675;28;20474;-67
2021/11/23 05:33:37;;;;;;;40.25;2.90;;;5.50;99.90;;;;;;5072904;28;20024;-67
2021/11/23 05:36:03;;;;;;;27.33;3.38;;;5.50;99.90;;;;;;5072872;28;20471;-67
2021/11/23 05:38:28;;;;;;;34.33;3.60;;;5.60;99.90;;;;;;5072537;28;20444;-67
2021/11/23 05:40:54;;;;;;;17.13;3.83;;;5.60;99.90;;;;;;5072647;28;20021;-67
2021/11/23 05:43:19;;;;;;;34.60;4.60;;;5.50;99.90;;;;;;5072529;28;20029;-67
2021/11/23 05:45:45;;;;;;;25.65;2.65;;;5.40;99.90;;;;;;5072865;28;20107;-67
2021/11/23 05:48:11;;;;;;;15.95;2.67;;;5.40;99.90;;;;;;5072717;28;20099;-67
2021/11/23 05:50:37;;;;;;;25.95;2.92;;;5.30;99.90;;;;;;5072685;28;20510;-67
2021/11/23 05:53:03;;;;;;;34.97;2.95;;;5.30;99.90;;;;;;5100066;22;20025;-66
2021/11/23 05:55:30;;;;;;;21.08;2.35;;;5.40;99.90;;;;;;5115682;28;20024;-66
2021/11/23 05:57:56;;;;;;;23.45;2.67;;;5.40;99.90;;;;;;5116964;28;20054;-66
2021/11/23 06:00:22;;;;;;;34.75;2.90;;;5.40;99.90;;;;;;5116677;28;20475;-66
2021/11/23 06:02:47;;;;;;;27.90;2.75;;;5.50;99.90;;;;;;5116877;28;20028;-66
2021/11/23 06:05:13;;;;;;;26.58;2.85;;;5.40;99.90;;;;;;5116809;28;20028;-66
2021/11/23 06:07:38;;;;;;;33.90;3.33;;;5.50;99.90;;;;;;5116132;28;20077;-66
2021/11/23 06:10:04;;;;;;;35.22;3.55;;;5.50;99.90;;;;;;5117054;28;20027;-66
2021/11/23 06:12:31;;;;;;;39.15;3.38;;;5.50;99.90;;;;;;5116720;28;20061;-66
2021/11/23 06:14:58;;;;;;;39.83;4.28;;;5.50;99.90;;;;;;5116380;28;20042;-66
2021/11/23 06:17:26;;;;;;;36.83;4.10;;;5.50;99.90;;;;;;5116561;28;20031;-66
2021/11/23 06:19:52;;;;;;;13.80;1.90;;;5.50;99.90;;;;;;5116025;28;20023;-66
2021/11/23 06:22:17;;;;;;;21.58;2.55;;;5.50;99.90;;;;;;5116227;28;20110;-66
2021/11/23 06:24:43;;;;;;;27.45;3.60;;;5.50;99.90;;;;;;5116175;28;20076;-66
2021/11/23 06:27:08;;;;;;;46.10;2.78;;;5.40;99.90;;;;;;5116267;28;20024;-66
2021/11/23 06:29:34;;;;;;;38.60;3.13;;;5.40;99.90;;;;;;5116421;28;20034;-66
2021/11/23 06:32:00;;;;;;;30.55;3.72;;;5.40;99.90;;;;;;5115794;28;20023;-66
2021/11/23 06:34:25;;;;;;;29.45;3.38;;;5.50;99.90;;;;;;5115910;28;20019;-66
2021/11/23 06:36:51;;;;;;;28.65;2.85;;;5.50;99.90;;;;;;5116157;28;20047;-66
2021/11/23 06:39:18;;;;;;;40.47;4.25;;;5.50;99.90;;;;;;5116210;28;20065;-66
2021/11/23 06:41:44;;;;;;;23.15;3.28;;;5.50;99.90;;;;;;5115910;28;20466;-66
2021/11/23 06:44:10;;;;;;;29.45;4.03;;;5.50;99.90;;;;;;5115835;28;20030;-66
2021/11/23 06:46:36;;;;;;;32.65;3.25;;;5.40;99.90;;;;;;5115518;28;20051;-66
2021/11/23 06:49:03;;;;;;;22.27;2.55;;;5.40;99.90;;;;;;5115815;28;20518;-66
2021/11/23 06:51:29;;;;;;;27.08;3.05;;;5.30;99.90;;;;;;5116013;28;20394;-66
2021/11/23 06:53:55;;;;;;;35.70;3.17;;;5.20;99.90;;;;;;5115488;28;20047;-66
2021/11/23 06:56:21;;;;;;;14.00;2.15;;;5.10;99.90;;;;;;5115733;28;20394;-66
2021/11/23 06:58:47;;;;;;;24.42;3.53;;;5.00;99.90;;;;;;5115215;28;20028;-66
2021/11/23 07:01:13;;;;;;;45.17;4.55;;;5.00;99.90;;;;;;5115800;28;20390;-66
2021/11/23 07:03:38;;;;;;;27.55;3.95;;;5.10;99.90;;;;;;5115685;28;20018;-66
2021/11/23 07:06:04;;;;;;;29.02;2.90;;;5.10;99.90;;;;;;5115900;28;20023;-66
2021/11/23 07:08:31;;;;;;;30.27;3.35;;;5.30;99.90;;;;;;5115361;28;20038;-67
2021/11/23 07:10:57;;;;;;;32.13;2.83;;;5.50;99.90;;;;;;5115581;28;20034;-67
2021/11/23 07:13:22;;;;;;;26.20;3.72;;;5.50;99.90;;;;;;5115435;28;20110;-67
2021/11/23 07:15:48;;;;;;;19.60;2.42;;;5.50;99.90;;;;;;5114989;28;20039;-66
2021/11/23 07:18:14;;;;;;;21.48;2.83;;;5.50;99.90;;;;;;5115393;28;20024;-66
2021/11/23 07:20:40;;;;;;;18.25;2.75;;;5.60;99.90;;;;;;5115447;28;20027;-66
2021/11/23 07:23:06;;;;;;;36.17;2.85;;;5.60;99.90;;;;;;5115239;28;20031;-66
2021/11/23 07:25:32;;;;;;;25.42;2.78;;;5.60;99.90;;;;;;5114577;28;20156;-66
2021/11/23 07:28:00;;;;;;;26.52;2.88;;;5.80;99.90;;;;;;5115299;28;20081;-66
2021/11/23 07:30:25;;;;;;;32.25;3.17;;;5.80;99.90;;;;;;5115104;28;20042;-66
2021/11/23 07:32:51;;;;;;;31.02;3.08;;;5.70;99.90;;;;;;5114887;28;20461;-66
2021/11/23 07:35:19;;;;;;;18.73;2.78;;;5.80;99.90;;;;;;5115127;28;20023;-66
2021/11/23 07:37:45;;;;;;;22.40;2.78;;;5.80;99.90;;;;;;5115015;28;20097;-66
2021/11/23 07:40:11;;;;;;;24.42;2.50;;;5.80;99.90;;;;;;5114187;28;20019;-66
2021/11/23 07:42:38;;;;;;;22.42;3.00;;;5.60;99.90;;;;;;5115032;28;20454;-66
2021/11/23 07:45:04;;;;;;;17.05;2.42;;;5.50;99.90;;;;;;5096473;28;20020;-66
2021/11/23 07:47:30;;;;;;;25.88;2.45;;;5.40;99.90;;;;;;5114026;28;20044;-66
2021/11/23 07:49:56;;;;;;;27.73;3.67;;;5.40;99.90;;;;;;5114544;28;20020;-66
2021/11/23 07:52:21;;;;;;;23.75;2.03;;;5.40;99.90;;;;;;5114544;28;20043;-66
2021/11/23 07:54:47;;;;;;;26.33;2.78;;;5.50;99.90;;;;;;5114370;28;20087;-66
2021/11/23 07:57:13;;;;;;;26.35;2.70;;;5.50;99.90;;;;;;5114399;28;20068;-66
2021/11/23 07:59:38;;;;;;;28.42;2.85;;;5.60;99.90;;;;;;5113847;28;20034;-66
2021/11/23 08:02:04;;;;;;;24.65;2.53;;;5.70;99.90;;;;;;5114374;28;20027;-66
2021/11/23 08:04:29;;;;;;;28.38;2.90;;;5.70;99.90;;;;;;5114243;28;20096;-66
2021/11/23 08:06:55;;;;;;;15.85;2.65;;;5.60;99.90;;;;;;5113995;28;20148;-66
2021/11/23 08:09:20;;;;;;;18.15;3.25;;;5.50;99.90;;;;;;5114230;28;20098;-66
2021/11/23 08:11:46;;;;;;;24.27;3.35;;;5.50;99.90;;;;;;5114127;28;20525;-66
2021/11/23 08:14:12;;;;;;;16.08;3.55;;;5.50;99.90;;;;;;5114076;28;20493;-66
2021/11/23 08:16:37;;;;;;;14.65;3.50;;;5.50;99.90;;;;;;5113915;28;20054;-66
2021/11/23 08:19:03;;;;;;;28.92;4.30;;;5.60;99.90;;;;;;5113627;28;20074;-66
2021/11/23 08:21:30;;;;;;;29.50;3.25;;;5.80;99.90;;;;;;5114319;28;20470;-66
2021/11/23 08:23:56;;;;;;;24.80;3.15;;;5.90;99.90;;;;;;5114225;28;20432;-66
2021/11/23 08:26:23;;;;;;;23.42;2.83;;;5.90;99.90;;;;;;5114071;28;20016;-66
2021/11/23 08:28:49;;;;;;;33.17;4.53;;;6.00;99.90;;;;;;5114121;28;20359;-66
2021/11/23 08:31:15;;;;;;;25.98;2.40;;;6.10;99.90;;;;;;5113622;28;20100;-66
2021/11/23 08:33:41;;;;;;;32.33;2.63;;;6.10;99.90;;;;;;5114064;28;20027;-66
2021/11/23 08:36:08;;;;;;;39.35;4.07;;;6.20;99.90;;;;;;5114084;28;20072;-66
2021/11/23 08:38:34;;;;;;;30.40;3.35;;;6.30;99.90;;;;;;5113764;28;20474;-66
2021/11/23 08:41:00;;;;;;;34.58;3.63;;;6.20;99.90;;;;;;5113762;28;20019;-66
2021/11/23 08:43:25;;;;;;;35.67;4.38;;;6.20;99.90;;;;;;5113035;28;20022;-66
2021/11/23 08:45:51;;;;;;;33.85;4.32;;;6.20;99.90;;;;;;5113704;28;20035;-66
2021/11/23 08:48:17;;;;;;;44.80;5.57;;;6.30;99.90;;;;;;5113996;28;20024;-66
2021/11/23 08:50:42;;;;;;;27.92;2.53;;;6.40;99.90;;;;;;5113671;28;20123;-66
2021/11/23 08:53:09;;;;;;;19.17;2.50;;;6.50;99.90;;;;;;5113642;28;20470;-66
2021/11/23 08:55:36;;;;;;;27.95;3.08;;;6.50;99.90;;;;;;5113885;28;20028;-66
2021/11/23 08:58:03;;;;;;;22.85;2.40;;;6.60;99.90;;;;;;5113278;28;20032;-66
2021/11/23 09:00:29;;;;;;;30.83;2.97;;;6.60;99.90;;;;;;5113594;28;20043;-67
2021/11/23 09:02:59;;;;;;;31.20;2.72;;;6.70;99.90;;;;;;5113473;28;20522;-67
2021/11/23 09:05:27;;;;;;;22.05;2.92;;;6.70;99.90;;;;;;5114111;28;20102;-67
2021/11/23 09:07:53;;;;;;;28.63;4.00;;;6.80;99.90;;;;;;5113186;28;20032;-67
2021/11/23 09:10:23;;;;;;;20.73;3.70;;;6.90;99.90;;;;;;5113714;28;20102;-67
2021/11/23 09:12:51;;;;;;;26.67;3.25;;;6.90;99.90;;;;;;5113651;28;20023;-67
2021/11/23 09:15:17;;;;;;;22.30;2.58;;;7.00;99.90;;;;;;5113694;28;20024;-67
2021/11/23 09:17:43;;;;;;;27.85;2.63;;;7.10;99.90;;;;;;5113558;28;20359;-67
2021/11/23 09:20:11;;;;;;;20.25;3.50;;;7.20;99.90;;;;;;5113673;28;20121;-67
2021/11/23 09:22:37;;;;;;;22.33;2.78;;;7.30;99.90;;;;;;5112593;28;20020;-66
2021/11/23 09:25:04;;;;;;;18.25;2.50;;;7.40;99.90;;;;;;5113582;28;20098;-66
2021/11/23 09:27:30;;;;;;;32.85;3.17;;;7.40;99.90;;;;;;5113315;28;20092;-67
2021/11/23 09:29:55;;;;;;;42.65;4.13;;;7.50;99.90;;;;;;5114873;28;20027;-67
2021/11/23 09:32:21;;;;;;;19.50;2.88;;;7.50;99.90;;;;;;5116732;28;20463;-67
2021/11/23 09:34:46;;;;;;;25.13;3.05;;;7.60;99.90;;;;;;5117190;28;20028;-67
2021/11/23 09:37:12;;;;;;;19.00;3.58;;;7.70;99.90;;;;;;5117411;28;20434;-67
2021/11/23 09:39:38;;;;;;;27.90;3.40;;;7.80;99.90;;;;;;5117166;28;20047;-67
2021/11/23 09:42:04;;;;;;;24.42;4.05;;;8.00;99.90;;;;;;5117151;28;20405;-67
2021/11/23 09:44:29;;;;;;;19.02;2.60;;;8.00;99.90;;;;;;5116690;28;20068;-67
2021/11/23 09:46:55;;;;;;;15.82;2.30;;;8.10;99.90;;;;;;5117285;28;20023;-67
2021/11/23 09:49:20;;;;;;;25.88;2.38;;;8.10;99.90;;;;;;5116978;28;20024;-67
2021/11/23 09:51:46;;;;;;;13.32;2.60;;;8.10;99.90;;;;;;5117164;28;20020;-67
2021/11/23 09:54:12;;;;;;;17.15;3.17;;;8.10;99.90;;;;;;5116804;28;20482;-67
2021/11/23 09:56:40;;;;;;;19.70;3.13;;;8.20;99.90;;;;;;5116527;28;20145;-66
2021/11/23 09:59:06;;;;;;;15.93;2.15;;;8.20;99.90;;;;;;5098410;28;20028;-67
2021/11/23 10:01:54;;;;;;;16.83;2.90;;;8.20;99.90;;;;;;5116994;28;20031;-67
2021/11/23 10:04:21;;;;;;;12.73;2.17;;;8.30;99.90;;;;;;5116573;28;20027;-67
2021/11/23 10:07:17;;;;;;;35.80;2.50;;;8.40;99.90;;;;;;5116883;28;20031;-67
2021/11/23 10:09:44;;;;;;;20.23;2.78;;;8.40;99.90;;;;;;5107433;28;20074;-66
2021/11/23 10:12:14;;;;;;;17.63;3.50;;;8.50;99.90;;;;;;5116822;28;20028;-66
2021/11/23 10:14:39;;;;;;;22.25;3.20;;;8.70;99.90;;;;;;5116683;28;20154;-66
2021/11/23 10:17:23;;;;;;;25.67;4.35;;;8.80;99.90;;;;;;5116603;28;20066;-67
2021/11/23 10:19:48;;;;;;;17.38;1.98;;;9.00;99.90;;;;;;5116184;28;20063;-67
2021/11/23 10:22:30;;;;;;;18.75;3.20;;;9.10;99.90;;;;;;5116884;28;20035;-67
2021/11/23 10:25:07;;;;;;;15.95;2.55;;;9.00;99.90;;;;;;5116279;28;20027;-67
2021/11/23 10:27:40;;;;;;;13.25;2.13;;;9.00;99.90;;;;;;5116465;28;20027;-67
2021/11/23 10:30:07;;;;;;;18.80;2.05;;;9.00;99.90;;;;;;5116512;28;20032;-67
2021/11/23 10:32:41;;;;;;;12.32;1.98;;;9.10;99.90;;;;;;5115623;28;20486;-67
2021/11/23 10:35:18;;;;;;;22.85;3.03;;;9.10;99.90;;;;;;5116030;28;20028;-67
2021/11/23 10:37:45;;;;;;;12.23;2.53;;;9.10;99.90;;;;;;5116049;28;20059;-67
2021/11/23 10:40:22;;;;;;;22.58;3.60;;;9.20;99.90;;;;;;5115475;28;20077;-67
2021/11/23 10:43:04;;;;;;;21.05;3.95;;;9.40;99.90;;;;;;5116104;28;20047;-67
2021/11/23 10:45:49;;;;;;;21.10;2.35;;;9.60;99.90;;;;;;5116183;28;20084;-67
2021/11/23 10:48:18;;;;;;;19.08;2.47;;;9.60;99.90;;;;;;5116126;28;20059;-67
2021/11/23 10:51:01;;;;;;;31.33;3.53;;;9.60;99.90;;;;;;5115748;28;20023;-67
2021/11/23 10:53:27;;;;;;;27.77;2.90;;;9.60;99.90;;;;;;5115778;28;20027;-67
2021/11/23 10:55:53;;;;;;;27.42;3.38;;;9.60;99.90;;;;;;5115350;28;20450;-66
2021/11/23 10:58:19;;;;;;;26.27;5.85;;;9.70;99.90;;;;;;5115424;28;20031;-66
2021/11/23 11:00:47;;;;;;;19.42;3.25;;;9.80;99.90;;;;;;5115873;28;20024;-67
2021/11/23 11:03:16;;;;;;;23.15;2.90;;;9.80;99.90;;;;;;5115775;28;20024;-67
2021/11/23 11:05:43;;;;;;;21.55;2.35;;;9.80;99.90;;;;;;5115508;28;20015;-67
2021/11/23 11:08:09;;;;;;;23.20;3.65;;;9.90;99.90;;;;;;5115709;28;20027;-67
2021/11/23 11:10:37;;;;;;;25.00;2.67;;;10.00;99.90;;;;;;5115404;28;20027;-67
2021/11/23 11:13:07;;;;;;;24.95;2.67;;;10.00;99.90;;;;;;5114993;28;20108;-67
2021/11/23 11:15:36;;;;;;;24.65;2.67;;;10.10;99.90;;;;;;5115939;28;20422;-67
2021/11/23 11:18:06;;;;;;;22.58;3.03;;;10.20;99.90;;;;;;5115259;28;20462;-67
2021/11/23 11:20:45;;;;;;;13.07;2.47;;;10.20;99.90;;;;;;5115552;28;20020;-67
2021/11/23 11:23:21;;;;;;;22.33;2.85;;;10.30;99.90;;;;;;5115072;28;20019;-67
2021/11/23 11:28:43;;;;;;;42.97;3.63;;;10.30;99.90;;;;;;5115105;28;20019;-67
2021/11/23 11:31:40;;;;;;;23.38;3.88;;;10.30;99.90;;;;;;5115313;28;20107;-67
2021/11/23 11:34:22;;;;;;;22.20;2.38;;;10.20;99.90;;;;;;5115027;28;20031;-67
2021/11/23 11:37:03;;;;;;;16.02;2.63;;;10.30;99.90;;;;;;5115211;28;20420;-67
2021/11/23 11:39:52;;;;;;;18.92;3.40;;;10.20;99.90;;;;;;5115258;28;20374;-66
2021/11/23 11:42:21;;;;;;;18.17;3.25;;;10.30;99.90;;;;;;5108277;28;20405;-67
2021/11/23 11:44:50;;;;;;;9.38;1.90;;;10.20;99.90;;;;;;5114696;28;20084;-67
2021/11/23 11:47:19;;;;;;;15.63;1.98;;;10.20;99.90;;;;;;5114361;28;20031;-66
2021/11/23 11:49:55;;;;;;;18.75;2.75;;;10.10;99.90;;;;;;5114603;28;20027;-67
2021/11/23 11:52:26;;;;;;;21.58;2.58;;;10.10;99.90;;;;;;5114157;28;20501;-67
2021/11/23 11:55:17;;;;;;;14.18;2.00;;;10.20;99.90;;;;;;5113977;28;20111;-66
2021/11/23 11:57:48;;;;;;;19.23;3.10;;;10.20;99.90;;;;;;5109486;28;20028;-66
2021/11/23 12:00:31;;;;;;;7.57;1.67;;;10.30;99.90;;;;;;5114662;28;20494;-66
2021/11/23 12:03:10;;;;;;;10.32;2.78;;;10.30;99.90;;;;;;5114283;28;20528;-67
2021/11/23 12:05:53;;;;;;;14.50;2.13;;;10.30;99.90;;;;;;5114554;28;20057;-67
2021/11/23 12:08:25;;;;;;;18.55;2.67;;;10.30;99.90;;;;;;5113634;28;20512;-66
2021/11/23 12:10:51;;;;;;;20.95;3.25;;;10.30;99.90;;;;;;5114517;28;20106;-66
2021/11/23 12:13:41;;;;;;;15.23;2.60;;;10.20;99.90;;;;;;5114359;28;20034;-66
2021/11/23 12:16:32;;;;;;;14.80;2.78;;;10.30;99.90;;;;;;5114493;28;20059;-66
2021/11/23 12:19:04;;;;;;;17.02;2.97;;;10.30;99.90;;;;;;5114355;28;20030;-66
2021/11/23 12:21:33;;;;;;;24.90;2.80;;;10.30;99.90;;;;;;5113800;28;20020;-67
2021/11/23 12:24:03;;;;;;;14.63;2.13;;;10.40;99.90;;;;;;5113898;28;20450;-67
2021/11/23 12:26:37;;;;;;;22.38;3.80;;;10.50;99.90;;;;;;5114069;28;20024;-67
2021/11/23 12:29:12;;;;;;;15.65;2.08;;;10.50;99.90;;;;;;5114233;28;20034;-67
2021/11/23 12:31:46;;;;;;;23.05;3.67;;;10.50;99.90;;;;;;5113974;28;20024;-67
2021/11/23 12:34:12;;;;;;;21.60;2.60;;;10.60;99.90;;;;;;5113350;28;20020;-67
2021/11/23 12:36:44;;;;;;;11.70;2.40;;;10.60;99.90;;;;;;5113821;28;20088;-66
2021/11/23 12:39:16;;;;;;;22.20;3.10;;;10.60;99.90;;;;;;5113931;28;20027;-66
2021/11/23 12:41:43;;;;;;;24.70;2.80;;;10.80;99.90;;;;;;5113528;28;20072;-66
2021/11/23 12:44:24;;;;;;;17.98;2.15;;;10.90;99.90;;;;;;5114260;28;20024;-67
2021/11/23 12:47:00;;;;;;;19.23;3.08;;;11.10;99.90;;;;;;5114312;28;20507;-67
2021/11/23 12:49:27;;;;;;;13.48;2.15;;;11.20;99.90;;;;;;5113676;28;20028;-67
2021/11/23 12:51:56;;;;;;;11.02;2.35;;;11.20;99.90;;;;;;5113169;28;20471;-66